Time;durP1;ratioP1;P1;durP2;ratioP2;P2;SDS_P1;SDS_P2;PMS_P1;PMS_P2;Temp;Humidity;BMP_temperature;BMP_pressure;BME280_temperature;BME280_humidity;BME280_pressure;Samples;Min_cycle;Max_cycle;Signal;HPM_P1;HPM_P2
2023/12/20 00:00:52;;;;;;;32.30;12.40;;;-0.40;99.90;;;;;;5036769;28;20025;-63
2023/12/20 00:03:18;;;;;;;23.77;11.70;;;-0.40;99.90;;;;;;5036985;28;20531;-63
2023/12/20 00:05:44;;;;;;;25.70;11.80;;;-0.50;99.90;;;;;;5021900;28;20025;-68
2023/12/20 00:08:09;;;;;;;22.90;11.65;;;-0.50;99.90;;;;;;5022496;28;20463;-64
2023/12/20 00:10:35;;;;;;;25.25;10.85;;;-0.50;99.90;;;;;;5021904;28;20029;-66
2023/12/20 00:13:01;;;;;;;27.80;12.30;;;-0.50;99.90;;;;;;5037282;28;20047;-63
2023/12/20 00:15:26;;;;;;;27.98;12.77;;;1.90;99.90;;;;;;5037280;28;20112;-64
2023/12/20 00:17:52;;;;;;;20.92;11.52;;;-0.60;99.90;;;;;;5019298;28;20096;-63
2023/12/20 00:20:17;;;;;;;25.58;12.57;;;-0.60;99.90;;;;;;5018894;28;20025;-63
2023/12/20 00:22:43;;;;;;;31.00;13.52;;;-0.10;99.90;;;;;;5036603;28;20041;-63
2023/12/20 00:25:09;;;;;;;33.03;13.52;;;-0.60;99.90;;;;;;5018833;28;20021;-63
2023/12/20 00:27:34;;;;;;;24.38;11.13;;;-0.60;99.90;;;;;;5036035;28;20025;-63
2023/12/20 00:30:00;;;;;;;25.00;12.02;;;-0.50;99.90;;;;;;5036357;28;20064;-63
2023/12/20 00:32:26;;;;;;;27.95;11.48;;;-0.40;99.90;;;;;;5035854;28;20072;-63
2023/12/20 00:34:51;;;;;;;29.90;12.38;;;1.90;99.90;;;;;;5036132;28;20025;-63
2023/12/20 00:37:17;;;;;;;24.42;9.98;;;0.80;99.90;;;;;;5018405;28;20030;-63
2023/12/20 00:39:42;;;;;;;23.55;10.98;;;0.80;99.90;;;;;;5035970;28;20130;-63
2023/12/20 00:42:08;;;;;;;24.58;10.95;;;-0.20;99.90;;;;;;5017032;28;20145;-63
2023/12/20 00:44:34;;;;;;;22.63;11.05;;;-0.20;99.90;;;;;;5018366;28;20032;-63
2023/12/20 00:46:59;;;;;;;31.52;13.13;;;-0.10;99.90;;;;;;5035885;28;20022;-63
2023/12/20 00:49:25;;;;;;;25.40;12.25;;;-0.10;99.90;;;;;;5018322;28;20108;-63
2023/12/20 00:51:52;;;;;;;28.00;12.13;;;-0.10;99.90;;;;;;5035804;28;20140;-63
2023/12/20 00:54:18;;;;;;;25.33;10.82;;;2.10;99.90;;;;;;5035615;28;20037;-63
2023/12/20 00:56:44;;;;;;;25.05;11.20;;;-0.10;99.90;;;;;;5035767;28;20117;-63
2023/12/20 00:59:09;;;;;;;27.20;13.02;;;-0.10;99.90;;;;;;5036017;28;20048;-63
2023/12/20 01:01:35;;;;;;;33.30;13.40;;;0.00;99.90;;;;;;5035703;28;20048;-63
2023/12/20 01:04:00;;;;;;;24.70;11.35;;;0.00;99.90;;;;;;5017885;28;20033;-63
2023/12/20 01:06:26;;;;;;;20.77;10.55;;;0.00;99.90;;;;;;5017743;28;20379;-63
2023/12/20 01:08:52;;;;;;;24.83;12.23;;;1.30;99.90;;;;;;5035545;28;20040;-63
2023/12/20 01:11:17;;;;;;;26.75;12.98;;;0.00;99.90;;;;;;5035169;28;20108;-63
2023/12/20 01:13:43;;;;;;;22.77;11.57;;;0.00;99.90;;;;;;5035073;28;20034;-63
2023/12/20 01:16:11;;;;;;;26.20;12.43;;;-0.10;99.90;;;;;;5035327;28;20037;-63
2023/12/20 01:18:37;;;;;;;25.38;12.50;;;0.80;99.90;;;;;;5035354;28;20021;-63
2023/12/20 01:21:03;;;;;;;28.27;11.70;;;0.00;99.90;;;;;;5035259;28;20033;-63
2023/12/20 01:23:29;;;;;;;21.98;12.23;;;0.00;99.90;;;;;;5035157;28;20387;-63
2023/12/20 01:25:55;;;;;;;28.92;11.98;;;1.30;99.90;;;;;;5035180;28;20026;-63
2023/12/20 01:28:20;;;;;;;26.95;11.48;;;0.00;99.90;;;;;;5017293;28;20083;-63
2023/12/20 01:30:46;;;;;;;22.88;12.00;;;1.80;99.90;;;;;;5017397;28;20026;-63
2023/12/20 01:33:12;;;;;;;23.23;11.98;;;0.00;99.90;;;;;;5034932;28;20068;-63
2023/12/20 01:35:37;;;;;;;24.75;11.27;;;0.00;99.90;;;;;;5034957;28;20064;-63
2023/12/20 01:38:03;;;;;;;21.85;10.05;;;0.00;99.90;;;;;;5035391;28;20032;-63
2023/12/20 01:40:29;;;;;;;23.27;10.80;;;0.00;99.90;;;;;;5034915;28;20029;-63
2023/12/20 01:43:12;;;;;;;22.33;9.88;;;1.10;99.90;;;;;;5017108;28;20387;-63
2023/12/20 01:45:38;;;;;;;16.98;9.27;;;0.10;99.90;;;;;;5017090;28;20025;-63
2023/12/20 01:48:05;;;;;;;23.10;10.48;;;1.10;99.90;;;;;;5034509;28;20422;-63
2023/12/20 01:50:32;;;;;;;21.77;10.35;;;0.20;99.90;;;;;;5034399;28;20029;-63
2023/12/20 01:53:00;;;;;;;21.52;10.02;;;0.20;99.90;;;;;;5033933;28;20140;-63
2023/12/20 01:55:29;;;;;;;18.35;10.27;;;0.30;99.90;;;;;;5034783;28;20022;-63
2023/12/20 01:57:57;;;;;;;18.50;9.73;;;0.30;99.90;;;;;;5017092;28;20068;-63
2023/12/20 02:00:23;;;;;;;18.98;10.25;;;0.40;99.90;;;;;;5034830;28;20555;-63
2023/12/20 02:02:52;;;;;;;18.85;9.13;;;0.50;99.90;;;;;;5034532;28;20029;-63
2023/12/20 02:05:18;;;;;;;13.85;6.30;;;0.70;99.90;;;;;;5034718;28;20017;-63
2023/12/20 02:07:43;;;;;;;5.38;2.50;;;1.10;99.90;;;;;;5034409;28;20036;-63
2023/12/20 02:10:09;;;;;;;3.15;1.35;;;1.60;99.90;;;;;;5034363;28;20021;-63
2023/12/20 02:12:35;;;;;;;5.90;1.40;;;2.80;99.90;;;;;;5016507;28;20442;-63
2023/12/20 02:15:01;;;;;;;1.67;1.20;;;3.80;99.90;;;;;;5016624;28;20029;-63
2023/12/20 02:17:27;;;;;;;1.45;0.80;;;5.00;99.90;;;;;;5016201;28;20055;-63
2023/12/20 02:19:53;;;;;;;1.92;0.75;;;6.00;99.90;;;;;;5034185;28;20431;-63
2023/12/20 02:22:18;;;;;;;1.08;0.82;;;6.60;99.90;;;;;;5016401;28;20124;-63
2023/12/20 02:24:44;;;;;;;1.40;1.05;;;7.20;97.80;;;;;;5034112;28;20045;-62
2023/12/20 02:27:10;;;;;;;4.53;1.15;;;7.60;96.10;;;;;;5016528;28;20021;-63
2023/12/20 02:29:36;;;;;;;1.30;1.10;;;7.70;94.60;;;;;;5034044;28;20112;-63
2023/12/20 02:32:02;;;;;;;1.75;0.93;;;7.90;93.70;;;;;;5033879;28;20021;-63
2023/12/20 02:34:28;;;;;;;2.28;0.93;;;7.90;93.40;;;;;;5016332;28;20104;-63
2023/12/20 02:36:54;;;;;;;1.75;1.02;;;7.80;93.10;;;;;;5033930;28;20021;-63
2023/12/20 02:39:20;;;;;;;1.70;1.17;;;7.80;93.00;;;;;;5033893;28;20025;-63
2023/12/20 02:41:46;;;;;;;2.50;1.20;;;7.90;92.50;;;;;;5034209;28;20025;-63
2023/12/20 02:44:12;;;;;;;2.92;1.30;;;7.80;92.70;;;;;;5034086;28;20113;-63
2023/12/20 02:46:37;;;;;;;1.67;0.95;;;7.90;92.30;;;;;;5034051;28;20040;-63
2023/12/20 02:49:03;;;;;;;2.28;1.20;;;8.00;91.80;;;;;;5034027;28;20025;-63
2023/12/20 02:51:28;;;;;;;1.95;1.27;;;8.10;91.80;;;;;;5015805;28;20552;-63
2023/12/20 02:53:54;;;;;;;1.42;1.20;;;8.00;91.60;;;;;;5033358;28;20044;-63
2023/12/20 02:56:20;;;;;;;4.53;1.38;;;8.00;91.70;;;;;;5034174;28;20033;-63
2023/12/20 02:58:45;;;;;;;2.08;1.52;;;7.90;91.70;;;;;;5016066;28;20030;-63
2023/12/20 03:01:11;;;;;;;3.20;1.50;;;8.00;91.70;;;;;;5016038;28;20043;-63
2023/12/20 03:03:36;;;;;;;2.28;1.30;;;8.00;91.70;;;;;;5033723;28;20031;-63
2023/12/20 03:06:02;;;;;;;1.90;1.30;;;7.90;91.80;;;;;;5037624;28;20053;-63
2023/12/20 03:08:28;;;;;;;2.50;1.40;;;7.90;92.00;;;;;;5038042;28;20046;-63
2023/12/20 03:10:53;;;;;;;6.18;2.13;;;7.90;92.00;;;;;;5037809;28;20100;-63
2023/12/20 03:13:19;;;;;;;3.50;1.30;;;7.80;92.10;;;;;;5020096;28;20501;-63
2023/12/20 03:15:45;;;;;;;2.08;1.50;;;7.70;92.20;;;;;;5038163;28;20034;-63
2023/12/20 03:18:11;;;;;;;2.50;1.40;;;7.70;92.50;;;;;;5038271;28;20079;-63
2023/12/20 03:20:37;;;;;;;1.70;1.48;;;7.50;92.50;;;;;;5037997;28;20060;-63
2023/12/20 03:23:03;;;;;;;1.90;1.38;;;7.50;92.40;;;;;;5038022;28;20038;-63
2023/12/20 03:25:29;;;;;;;2.55;1.52;;;7.50;92.60;;;;;;5037415;28;20130;-63
2023/12/20 03:27:54;;;;;;;3.13;1.90;;;7.40;92.60;;;;;;5020504;28;20029;-63
2023/12/20 03:30:20;;;;;;;2.58;1.50;;;7.40;92.50;;;;;;5020668;28;20036;-63
2023/12/20 03:32:46;;;;;;;3.08;1.40;;;7.50;92.10;;;;;;5021329;28;20034;-66
2023/12/20 03:35:12;;;;;;;3.47;1.65;;;7.50;92.30;;;;;;5020421;28;20029;-67
2023/12/20 03:37:37;;;;;;;3.20;1.75;;;7.50;92.00;;;;;;5037594;28;20025;-63
2023/12/20 03:40:03;;;;;;;3.47;1.52;;;7.30;92.40;;;;;;5019437;28;20026;-63
2023/12/20 03:42:29;;;;;;;1.83;1.55;;;7.30;92.40;;;;;;5037099;28;20029;-63
2023/12/20 03:44:54;;;;;;;2.60;1.65;;;7.20;92.50;;;;;;5037236;28;20378;-63
2023/12/20 03:47:20;;;;;;;3.22;1.75;;;7.10;92.60;;;;;;5037056;28;20030;-63
2023/12/20 03:49:46;;;;;;;1.70;1.40;;;7.00;92.80;;;;;;5019242;28;20467;-63
2023/12/20 03:52:12;;;;;;;2.20;1.20;;;6.90;92.40;;;;;;5018982;28;20140;-63
2023/12/20 03:54:37;;;;;;;2.97;1.63;;;6.90;92.30;;;;;;5019074;28;20077;-63
2023/12/20 03:57:04;;;;;;;2.28;1.30;;;6.90;92.50;;;;;;5036679;28;20033;-63
2023/12/20 03:59:34;;;;;;;2.10;1.90;;;6.80;92.60;;;;;;5037112;28;20033;-64
2023/12/20 04:02:00;;;;;;;1.90;1.40;;;6.80;92.70;;;;;;5036892;28;20021;-63
2023/12/20 04:04:25;;;;;;;1.77;1.30;;;6.80;92.30;;;;;;5036726;28;20029;-63
2023/12/20 04:06:51;;;;;;;2.30;1.38;;;6.90;92.20;;;;;;5018943;28;20017;-63
2023/12/20 04:09:16;;;;;;;2.28;1.30;;;6.90;92.10;;;;;;5019024;28;20497;-63
2023/12/20 04:11:42;;;;;;;3.70;1.52;;;6.90;92.20;;;;;;5036668;28;20487;-63
2023/12/20 04:14:07;;;;;;;3.08;1.20;;;6.90;92.00;;;;;;5036524;28;20116;-63
2023/12/20 04:16:33;;;;;;;3.40;1.40;;;6.90;92.00;;;;;;5036203;28;20021;-63
2023/12/20 04:18:59;;;;;;;1.92;1.20;;;7.00;91.80;;;;;;5036690;28;20091;-63
2023/12/20 04:21:24;;;;;;;2.42;1.60;;;7.10;91.60;;;;;;5036373;28;20072;-63
2023/12/20 04:23:50;;;;;;;2.65;1.50;;;7.10;91.50;;;;;;5036043;28;20048;-63
2023/12/20 04:26:15;;;;;;;2.53;1.30;;;7.10;91.40;;;;;;5036311;28;20384;-63
2023/12/20 04:28:42;;;;;;;2.13;1.42;;;7.40;91.00;;;;;;5036284;28;20108;-63
2023/12/20 04:31:07;;;;;;;2.30;1.20;;;7.40;90.90;;;;;;5036291;28;20021;-63
2023/12/20 04:33:33;;;;;;;4.25;1.50;;;7.40;90.90;;;;;;5018394;28;20080;-63
2023/12/20 04:35:59;;;;;;;2.45;1.33;;;7.50;90.90;;;;;;5035911;28;20038;-63
2023/12/20 04:38:25;;;;;;;3.08;2.42;;;7.50;91.10;;;;;;5036099;28;20032;-63
2023/12/20 04:40:51;;;;;;;3.22;2.00;;;7.50;91.80;;;;;;5036333;28;20033;-63
2023/12/20 04:43:17;;;;;;;1.92;1.73;;;7.60;91.80;;;;;;5018000;28;20097;-63
2023/12/20 04:45:43;;;;;;;4.53;2.03;;;7.50;92.60;;;;;;5018326;28;20029;-67
2023/12/20 04:48:09;;;;;;;4.10;2.35;;;7.60;93.20;;;;;;5035897;28;20040;-63
2023/12/20 04:50:34;;;;;;;4.32;2.20;;;7.50;93.70;;;;;;5035926;28;20029;-63
2023/12/20 04:53:00;;;;;;;2.53;1.83;;;7.50;94.10;;;;;;5035279;28;20466;-63
2023/12/20 04:55:25;;;;;;;3.83;2.05;;;7.50;94.30;;;;;;5035793;28;20421;-63
2023/12/20 04:57:51;;;;;;;2.55;1.95;;;7.50;95.10;;;;;;5036336;28;20577;-63
2023/12/20 05:00:17;;;;;;;4.63;2.45;;;7.50;95.40;;;;;;5035973;28;20022;-63
2023/12/20 05:02:42;;;;;;;2.83;1.90;;;7.40;95.80;;;;;;5035906;28;20071;-63
2023/12/20 05:05:08;;;;;;;3.10;2.05;;;7.40;96.60;;;;;;5035600;28;20032;-63
2023/12/20 05:07:34;;;;;;;4.28;1.83;;;7.40;97.20;;;;;;5018210;28;20383;-63
2023/12/20 05:10:00;;;;;;;2.78;1.90;;;7.50;98.00;;;;;;5035521;28;20113;-63
2023/12/20 05:12:25;;;;;;;4.50;2.30;;;7.40;98.00;;;;;;5035405;28;20064;-63
2023/12/20 05:14:52;;;;;;;3.40;2.20;;;7.40;99.10;;;;;;5035413;28;20022;-63
2023/12/20 05:17:17;;;;;;;4.05;2.38;;;7.50;99.80;;;;;;5035366;28;20126;-63
2023/12/20 05:19:43;;;;;;;4.65;2.35;;;7.50;99.90;;;;;;5017748;28;20116;-63
2023/12/20 05:22:09;;;;;;;5.43;2.40;;;7.50;99.90;;;;;;5017747;28;20360;-63
2023/12/20 05:24:35;;;;;;;5.28;2.53;;;7.40;99.90;;;;;;5017765;28;20495;-63
2023/12/20 05:27:01;;;;;;;6.00;2.95;;;7.40;99.90;;;;;;5034527;28;20112;-63
2023/12/20 05:29:26;;;;;;;3.70;2.28;;;7.30;99.90;;;;;;5017539;28;20115;-63
2023/12/20 05:31:52;;;;;;;6.95;2.53;;;7.40;99.90;;;;;;5034892;28;20030;-63
2023/12/20 05:34:17;;;;;;;4.50;2.35;;;7.40;99.90;;;;;;5017208;28;20040;-63
2023/12/20 05:36:43;;;;;;;3.45;2.35;;;7.40;99.90;;;;;;5016939;28;20187;-63
2023/12/20 05:39:09;;;;;;;6.55;2.70;;;7.40;99.90;;;;;;5035033;28;20025;-63
2023/12/20 05:41:34;;;;;;;3.47;2.00;;;7.50;99.90;;;;;;5017137;28;20440;-63
2023/12/20 05:44:00;;;;;;;4.75;2.10;;;7.50;99.90;;;;;;5017215;28;20120;-63
2023/12/20 05:46:26;;;;;;;5.05;2.40;;;7.50;99.90;;;;;;5034803;28;20029;-63
2023/12/20 05:48:52;;;;;;;2.38;1.95;;;7.60;99.90;;;;;;5017083;28;20120;-62
2023/12/20 05:51:17;;;;;;;7.40;2.33;;;7.50;99.90;;;;;;5034690;28;20068;-62
2023/12/20 05:53:44;;;;;;;3.78;2.08;;;7.60;99.90;;;;;;5034428;28;20029;-63
2023/12/20 05:56:10;;;;;;;3.65;2.67;;;7.60;99.90;;;;;;5017055;28;20100;-62
2023/12/20 05:58:35;;;;;;;4.60;2.35;;;7.60;99.90;;;;;;5034972;28;20459;-62
2023/12/20 06:01:03;;;;;;;3.83;2.42;;;7.60;99.90;;;;;;5016891;28;20084;-62
2023/12/20 06:03:29;;;;;;;8.33;2.57;;;7.70;99.90;;;;;;5034519;28;20040;-63
2023/12/20 06:05:55;;;;;;;3.70;2.05;;;7.70;99.90;;;;;;5034205;28;20078;-62
2023/12/20 06:08:20;;;;;;;4.60;1.90;;;7.80;99.90;;;;;;5034520;28;20527;-62
2023/12/20 06:10:46;;;;;;;3.33;2.40;;;7.80;99.90;;;;;;5034536;28;20104;-62
2023/12/20 06:13:13;;;;;;;3.92;2.05;;;7.80;99.90;;;;;;5033948;28;20041;-62
2023/12/20 06:15:39;;;;;;;5.20;2.45;;;7.90;99.90;;;;;;5032453;28;20025;-63
2023/12/20 06:18:05;;;;;;;4.55;1.88;;;7.90;99.90;;;;;;5034128;28;20032;-63
2023/12/20 06:20:32;;;;;;;3.95;2.40;;;8.00;99.90;;;;;;5034182;28;20029;-63
2023/12/20 06:22:58;;;;;;;5.00;2.42;;;7.90;99.70;;;;;;5034025;28;20032;-63
2023/12/20 06:25:23;;;;;;;2.53;1.73;;;7.90;99.80;;;;;;5016633;28;20113;-64
2023/12/20 06:27:49;;;;;;;1.73;1.55;;;7.90;99.70;;;;;;5034105;28;20056;-63
2023/12/20 06:30:16;;;;;;;7.07;2.45;;;7.90;99.60;;;;;;5034148;28;20029;-63
2023/12/20 06:32:42;;;;;;;2.42;1.48;;;7.90;99.50;;;;;;5033586;28;20112;-63
2023/12/20 06:35:08;;;;;;;3.28;1.70;;;7.90;99.80;;;;;;5016256;28;20471;-64
2023/12/20 06:37:34;;;;;;;4.55;2.08;;;7.90;99.80;;;;;;5033725;28;20087;-64
2023/12/20 06:39:59;;;;;;;3.75;1.80;;;8.00;99.90;;;;;;5034216;28;20033;-65
2023/12/20 06:42:25;;;;;;;4.05;2.17;;;7.90;99.90;;;;;;5016351;28;20031;-65
2023/12/20 06:44:51;;;;;;;2.95;1.88;;;8.00;99.90;;;;;;5035801;28;20022;-65
2023/12/20 06:47:16;;;;;;;4.38;1.85;;;8.00;99.90;;;;;;5035068;28;20091;-62
2023/12/20 06:49:42;;;;;;;3.60;1.90;;;8.00;99.90;;;;;;5034746;28;20025;-64
2023/12/20 06:52:07;;;;;;;3.47;1.85;;;8.10;99.90;;;;;;5035142;28;20050;-63
2023/12/20 06:54:34;;;;;;;4.85;2.10;;;8.00;99.90;;;;;;5034013;28;20033;-63
2023/12/20 06:57:00;;;;;;;2.33;1.67;;;8.00;99.90;;;;;;5033745;28;20071;-64
2023/12/20 06:59:26;;;;;;;5.30;1.90;;;8.00;99.90;;;;;;5015686;28;20029;-64
2023/12/20 07:01:51;;;;;;;3.20;2.15;;;8.00;99.90;;;;;;5015739;28;20025;-63
2023/12/20 07:04:21;;;;;;;4.15;2.40;;;8.00;99.90;;;;;;5033886;28;20021;-64
2023/12/20 07:06:48;;;;;;;3.28;2.08;;;8.00;99.90;;;;;;5034171;28;20344;-64
2023/12/20 07:09:14;;;;;;;3.38;2.10;;;7.90;99.90;;;;;;5034308;28;20021;-64
2023/12/20 07:11:39;;;;;;;5.20;2.50;;;7.80;99.90;;;;;;5033873;28;20057;-64
2023/12/20 07:14:05;;;;;;;3.67;2.25;;;7.80;99.90;;;;;;5035467;28;20482;-64
2023/12/20 07:16:31;;;;;;;3.63;2.25;;;7.80;99.90;;;;;;5035852;28;20024;-64
2023/12/20 07:18:57;;;;;;;4.03;2.13;;;7.80;99.90;;;;;;5035317;28;20044;-60
2023/12/20 07:21:23;;;;;;;3.65;2.55;;;7.80;99.90;;;;;;5034377;28;20034;-63
2023/12/20 07:23:48;;;;;;;3.78;2.80;;;8.20;99.90;;;;;;5034071;28;20096;-62
2023/12/20 07:26:15;;;;;;;4.07;2.50;;;8.30;99.90;;;;;;5033847;28;20029;-62
2023/12/20 07:28:41;;;;;;;4.03;2.45;;;8.50;99.90;;;;;;5015828;28;20026;-61
2023/12/20 07:31:06;;;;;;;3.95;2.28;;;8.60;99.90;;;;;;5033542;28;20072;-61
2023/12/20 07:33:32;;;;;;;3.60;2.40;;;8.60;99.90;;;;;;5033334;28;20061;-61
2023/12/20 07:35:59;;;;;;;4.95;2.17;;;8.60;99.90;;;;;;5015966;28;20152;-62
2023/12/20 07:38:25;;;;;;;6.07;2.45;;;8.50;99.90;;;;;;5015706;28;20025;-61
2023/12/20 07:40:50;;;;;;;2.80;1.80;;;8.50;99.90;;;;;;5033284;28;20356;-62
2023/12/20 07:43:16;;;;;;;3.33;2.25;;;8.30;99.90;;;;;;5015994;28;20025;-64
2023/12/20 07:45:42;;;;;;;3.17;2.38;;;8.00;99.90;;;;;;5015944;28;20116;-64
2023/12/20 07:48:08;;;;;;;4.60;2.53;;;7.70;99.90;;;;;;5033073;28;20025;-64
2023/12/20 07:50:34;;;;;;;6.68;3.20;;;7.30;99.90;;;;;;5016441;28;20026;-64
2023/12/20 07:53:00;;;;;;;6.13;3.50;;;7.20;99.90;;;;;;5036608;28;20469;-63
2023/12/20 07:55:27;;;;;;;4.28;3.05;;;7.10;99.90;;;;;;5037033;28;20077;-64
2023/12/20 07:57:52;;;;;;;6.50;2.63;;;7.10;99.90;;;;;;5019150;28;20052;-63
2023/12/20 08:00:19;;;;;;;5.05;2.70;;;7.10;99.90;;;;;;5036830;28;20053;-64
2023/12/20 08:02:44;;;;;;;5.68;3.15;;;7.10;99.90;;;;;;5036764;28;20382;-64
2023/12/20 08:05:10;;;;;;;5.15;3.35;;;7.10;99.90;;;;;;5036827;28;20025;-63
2023/12/20 08:07:36;;;;;;;3.70;2.70;;;7.10;99.90;;;;;;5036812;28;20472;-63
2023/12/20 08:10:02;;;;;;;3.88;2.88;;;7.10;99.90;;;;;;5018450;28;20053;-63
2023/12/20 08:12:27;;;;;;;6.15;2.95;;;7.10;99.90;;;;;;5036586;28;20163;-64
2023/12/20 08:14:54;;;;;;;4.90;2.78;;;7.10;99.90;;;;;;5018775;28;20063;-64
2023/12/20 08:17:19;;;;;;;6.20;2.88;;;7.00;99.90;;;;;;5018837;28;20088;-64
2023/12/20 08:19:45;;;;;;;8.10;3.30;;;7.00;99.90;;;;;;5036677;28;20068;-63
2023/12/20 08:22:11;;;;;;;7.00;2.90;;;7.00;99.90;;;;;;5018692;28;20467;-63
2023/12/20 08:24:37;;;;;;;3.95;2.70;;;7.10;99.90;;;;;;5036537;28;20026;-63
2023/12/20 08:27:04;;;;;;;6.07;2.30;;;7.10;99.90;;;;;;5019421;28;20026;-63
2023/12/20 08:29:30;;;;;;;3.38;2.58;;;7.10;99.90;;;;;;5036272;28;20040;-63
2023/12/20 08:31:56;;;;;;;4.00;2.83;;;7.10;99.90;;;;;;5018515;28;20025;-63
2023/12/20 08:34:22;;;;;;;6.38;2.60;;;7.10;99.90;;;;;;5036340;28;20034;-63
2023/12/20 08:36:47;;;;;;;4.63;2.60;;;7.20;99.90;;;;;;5036201;28;20026;-63
2023/12/20 08:39:13;;;;;;;4.57;3.00;;;7.20;99.90;;;;;;5036124;28;20033;-63
2023/12/20 08:41:39;;;;;;;5.78;3.15;;;7.20;99.90;;;;;;5036178;28;20485;-63
2023/12/20 08:44:04;;;;;;;4.32;2.47;;;7.30;99.90;;;;;;5018701;28;20030;-63
2023/12/20 08:46:30;;;;;;;4.22;2.42;;;7.10;99.90;;;;;;5036135;28;20033;-63
2023/12/20 08:48:56;;;;;;;3.92;2.45;;;7.10;99.90;;;;;;5036098;28;20437;-63
2023/12/20 08:51:23;;;;;;;4.43;2.95;;;7.10;99.90;;;;;;5035759;28;20055;-63
2023/12/20 08:53:49;;;;;;;4.55;2.70;;;7.10;99.90;;;;;;5018533;28;20034;-63
2023/12/20 08:56:15;;;;;;;4.40;2.63;;;7.00;99.90;;;;;;5018119;28;20459;-64
2023/12/20 08:58:41;;;;;;;4.03;2.63;;;7.00;99.90;;;;;;5035952;28;20056;-63
2023/12/20 09:01:07;;;;;;;5.75;2.55;;;7.00;99.90;;;;;;5035782;28;20417;-63
2023/12/20 09:03:33;;;;;;;3.95;2.97;;;7.00;99.90;;;;;;5017189;28;20083;-63
2023/12/20 09:05:58;;;;;;;2.50;2.10;;;7.00;99.90;;;;;;5035646;28;20034;-63
2023/12/20 09:08:24;;;;;;;3.88;2.53;;;7.00;99.90;;;;;;5036155;28;20482;-63
2023/12/20 09:10:50;;;;;;;3.92;2.88;;;7.00;99.90;;;;;;5035847;28;20060;-63
2023/12/20 09:13:16;;;;;;;4.78;2.20;;;7.00;99.90;;;;;;5017606;28;20040;-63
2023/12/20 09:15:41;;;;;;;2.65;2.00;;;7.00;99.90;;;;;;5017629;28;20130;-63
2023/12/20 09:18:07;;;;;;;3.50;2.05;;;7.00;99.90;;;;;;5017722;28;20030;-63
2023/12/20 09:20:33;;;;;;;3.17;1.70;;;7.00;99.90;;;;;;5035396;28;20383;-64
2023/12/20 09:22:59;;;;;;;4.35;1.60;;;7.10;99.90;;;;;;5035622;28;20045;-63
2023/12/20 09:25:25;;;;;;;4.30;1.60;;;7.00;99.90;;;;;;5035229;28;20022;-63
2023/12/20 09:27:52;;;;;;;2.28;1.63;;;7.00;99.90;;;;;;5035254;28;20022;-62
2023/12/20 09:30:18;;;;;;;1.60;1.23;;;6.90;99.90;;;;;;5035136;28;20033;-62
2023/12/20 09:32:44;;;;;;;2.13;1.20;;;6.90;99.90;;;;;;5035068;28;20029;-62
2023/12/20 09:35:10;;;;;;;1.33;1.23;;;6.90;99.90;;;;;;5035100;28;20109;-63
2023/12/20 09:37:36;;;;;;;1.20;1.10;;;6.90;99.90;;;;;;5017239;28;20125;-64
2023/12/20 09:40:03;;;;;;;1.85;1.30;;;6.80;99.90;;;;;;5035490;28;20041;-63
2023/12/20 09:42:56;;;;;;;1.65;1.17;;;6.70;99.90;;;;;;5035023;28;20031;-63
2023/12/20 09:45:22;;;;;;;3.40;1.58;;;6.60;99.90;;;;;;5017013;28;20096;-64
2023/12/20 09:47:52;;;;;;;1.75;1.00;;;6.40;99.90;;;;;;5034805;28;20033;-63
2023/12/20 09:50:21;;;;;;;1.75;1.50;;;6.30;99.90;;;;;;5034838;28;20033;-63
2023/12/20 09:52:51;;;;;;;5.25;1.48;;;6.20;99.90;;;;;;5035458;28;20050;-63
2023/12/20 09:55:21;;;;;;;5.70;2.10;;;6.00;99.90;;;;;;5016975;28;20483;-64
2023/12/20 09:57:47;;;;;;;2.35;1.90;;;5.90;99.90;;;;;;5034812;28;20419;-66
2023/12/20 10:00:15;;;;;;;2.65;2.35;;;5.80;99.90;;;;;;5034604;28;20056;-64
2023/12/20 10:02:49;;;;;;;3.67;2.40;;;5.70;99.90;;;;;;5034532;28;20057;-63
2023/12/20 10:05:18;;;;;;;6.97;2.20;;;5.60;99.90;;;;;;5034828;28;20022;-64
2023/12/20 10:07:44;;;;;;;;;;;5.50;99.90;;;;;;5017592;28;20021;-64
2023/12/20 10:10:12;;;;;;;3.10;2.17;;;5.50;99.90;;;;;;5016557;28;19911;-64
2023/12/20 10:12:38;;;;;;;2.63;2.40;;;5.50;99.90;;;;;;5016576;28;20482;-64
2023/12/20 10:15:04;;;;;;;4.47;2.50;;;5.40;99.90;;;;;;5034077;28;20122;-65
2023/12/20 10:17:30;;;;;;;3.22;2.35;;;5.50;99.90;;;;;;5034018;28;20471;-63
2023/12/20 10:19:55;;;;;;;3.47;1.85;;;5.50;99.90;;;;;;5034046;28;20075;-64
2023/12/20 10:22:21;;;;;;;2.78;2.33;;;5.60;99.90;;;;;;5016496;28;20029;-64
2023/12/20 10:24:47;;;;;;;1.65;1.40;;;5.60;99.90;;;;;;5034455;28;20033;-64
2023/12/20 10:27:13;;;;;;;2.53;1.83;;;5.70;99.90;;;;;;5016394;28;20026;-64
2023/12/20 10:29:38;;;;;;;1.90;1.70;;;5.80;99.90;;;;;;5034259;28;20140;-67
2023/12/20 10:32:24;;;;;;;1.35;1.25;;;5.90;99.90;;;;;;5034507;28;20072;-63
2023/12/20 10:34:50;;;;;;;2.13;1.65;;;6.00;99.90;;;;;;5016259;28;20474;-63
2023/12/20 10:37:16;;;;;;;1.30;1.20;;;6.00;99.90;;;;;;5034015;28;20098;-63
2023/12/20 10:39:43;;;;;;;2.20;1.70;;;6.00;99.90;;;;;;5034079;28;20454;-63
2023/12/20 10:42:11;;;;;;;2.08;1.88;;;6.00;99.90;;;;;;5033991;28;20455;-63
2023/12/20 10:44:36;;;;;;;1.90;1.67;;;6.10;99.90;;;;;;5016333;28;20029;-63
2023/12/20 10:47:04;;;;;;;2.65;1.98;;;6.10;99.90;;;;;;5033973;28;20033;-63
2023/12/20 10:49:31;;;;;;;3.10;1.88;;;6.10;99.90;;;;;;5033563;28;20521;-63
2023/12/20 10:52:02;;;;;;;2.35;1.80;;;6.20;99.90;;;;;;5033758;28;20050;-63
2023/12/20 10:54:28;;;;;;;1.83;1.70;;;6.20;99.90;;;;;;5033575;28;20033;-64
2023/12/20 10:56:57;;;;;;;2.22;1.77;;;6.20;99.90;;;;;;5016019;28;20037;-64
2023/12/20 10:59:23;;;;;;;;;;;6.30;99.90;;;;;;5034205;28;20025;-63
2023/12/20 11:01:51;;;;;;;1.67;1.48;;;6.30;99.90;;;;;;5033958;28;19905;-65
2023/12/20 11:04:25;;;;;;;2.13;1.70;;;6.40;99.90;;;;;;5033829;28;20502;-65
2023/12/20 11:07:25;;;;;;;4.63;1.70;;;6.40;99.90;;;;;;5033776;28;20029;-66
2023/12/20 11:10:00;;;;;;;1.98;1.77;;;6.40;99.90;;;;;;5016191;28;20534;-65
2023/12/20 11:12:32;;;;;;;1.40;1.27;;;6.40;99.90;;;;;;5017647;28;20064;-65
2023/12/20 11:15:02;;;;;;;1.55;1.13;;;6.40;99.90;;;;;;5036644;28;20057;-65
2023/12/20 11:17:28;;;;;;;1.63;1.35;;;6.50;99.90;;;;;;5036644;28;20112;-65
2023/12/20 11:19:57;;;;;;;3.10;1.30;;;6.50;99.90;;;;;;5035512;28;20084;-65
2023/12/20 11:22:27;;;;;;;1.65;1.38;;;6.50;99.90;;;;;;5034404;28;20030;-64
2023/12/20 11:24:55;;;;;;;2.35;1.13;;;6.50;99.90;;;;;;5033851;28;20037;-64
2023/12/20 11:27:32;;;;;;;2.88;1.23;;;6.50;99.90;;;;;;5019544;28;20036;-64
2023/12/20 11:29:58;;;;;;;3.10;0.80;;;6.50;99.90;;;;;;5019719;28;20030;-64
2023/12/20 11:32:28;;;;;;;1.13;0.80;;;6.60;99.90;;;;;;5037417;28;20080;-64
2023/12/20 11:35:10;;;;;;;1.10;0.90;;;6.60;99.90;;;;;;5037456;28;20025;-63
2023/12/20 11:37:37;;;;;;;1.50;1.10;;;6.60;99.90;;;;;;5037722;28;20029;-63
2023/12/20 11:40:03;;;;;;;1.17;1.05;;;6.70;99.90;;;;;;5037520;28;20525;-63
2023/12/20 11:42:34;;;;;;;1.20;1.10;;;6.60;99.90;;;;;;5037206;28;20026;-63
2023/12/20 11:45:03;;;;;;;1.48;1.15;;;6.70;99.90;;;;;;5037637;28;20036;-63
2023/12/20 11:47:31;;;;;;;2.35;1.00;;;6.70;99.90;;;;;;5036826;28;20527;-63
2023/12/20 11:49:56;;;;;;;1.77;1.00;;;6.70;99.90;;;;;;5037018;28;20459;-64
2023/12/20 11:52:22;;;;;;;3.00;0.90;;;6.70;99.90;;;;;;5017128;28;20095;-65
2023/12/20 11:54:48;;;;;;;0.80;0.80;;;6.80;99.90;;;;;;5019335;28;20034;-65
2023/12/20 11:57:14;;;;;;;1.83;1.00;;;6.90;99.90;;;;;;5019099;28;20025;-64
2023/12/20 11:59:39;;;;;;;2.22;0.80;;;7.00;99.90;;;;;;5036730;28;20033;-64
2023/12/20 12:02:05;;;;;;;0.85;0.80;;;7.00;99.90;;;;;;5037105;28;20374;-64
2023/12/20 12:04:31;;;;;;;2.08;0.82;;;7.10;99.90;;;;;;5036558;28;20034;-64
2023/12/20 12:06:57;;;;;;;1.10;1.00;;;7.10;99.90;;;;;;5036497;28;20057;-64
2023/12/20 12:09:23;;;;;;;0.73;0.68;;;7.20;99.90;;;;;;5036672;28;20414;-64
2023/12/20 12:11:49;;;;;;;0.75;0.50;;;7.20;99.90;;;;;;5036542;28;20033;-63
2023/12/20 12:14:14;;;;;;;2.17;0.80;;;7.10;99.90;;;;;;5036524;28;20467;-64
2023/12/20 12:16:42;;;;;;;0.70;0.70;;;7.20;99.90;;;;;;5037110;28;20104;-64
2023/12/20 12:19:19;;;;;;;0.80;0.80;;;7.20;99.90;;;;;;5036526;28;20144;-63
2023/12/20 12:21:45;;;;;;;0.85;0.85;;;7.20;99.90;;;;;;5036691;28;20060;-63
2023/12/20 12:24:11;;;;;;;1.15;0.80;;;7.20;99.90;;;;;;5036625;28;20025;-63
2023/12/20 12:26:37;;;;;;;0.98;0.70;;;7.20;99.90;;;;;;5018654;28;20083;-63
2023/12/20 12:29:03;;;;;;;0.90;0.60;;;7.20;99.90;;;;;;5018366;28;20120;-63
2023/12/20 12:31:30;;;;;;;0.88;0.77;;;7.10;99.90;;;;;;5036296;28;20113;-63
2023/12/20 12:33:56;;;;;;;1.88;0.80;;;7.10;99.90;;;;;;5018473;28;20416;-63
2023/12/20 12:36:22;;;;;;;0.47;0.40;;;7.10;99.90;;;;;;5018280;28;20034;-63
2023/12/20 12:38:47;;;;;;;0.50;0.50;;;7.10;99.90;;;;;;5036278;28;20043;-67
2023/12/20 12:41:15;;;;;;;1.30;0.65;;;7.10;99.90;;;;;;5036232;28;20469;-63
2023/12/20 12:43:41;;;;;;;0.52;0.52;;;7.10;99.90;;;;;;5036239;28;20038;-63
2023/12/20 12:46:07;;;;;;;3.40;0.88;;;7.00;99.90;;;;;;5036066;28;20068;-63
2023/12/20 12:48:33;;;;;;;1.58;0.57;;;7.00;99.90;;;;;;5035950;28;20466;-63